Meteo Giornale » Osservazioni meteo Italia » Milano-Linate

ore: 08:20 - Osservazioni Meteo Milano-Linate
Lat. 45° 26' N Lon. 9° 17' E Alt. 107 metri s.l.m.

nuvoloso Europe/Rome

14 °C

Nuvoloso

Temp. 24 Ore

11 °C

22 °C

Nord

3.7 Km/h

Dew point 7 °C

Umidità 62 %

Visibilità  10 Km

Il sole sorge alle ore 06:25

Il sole tramonta alle ore 20:17

Data e Ora Cielo e Fenomeni T °C DP °C Um. % Pres. hPa Vis. km Vento km/h
Oggi h: 08:20 nuvoloso Nuvoloso 14 7 62 1022 10 N 3.7
Oggi h: 07:50 nuvoloso Nuvoloso 13 8 71 1022 10 N 5.5
Oggi h: 07:20 nuvoloso Nuvoloso 11 7 76 1022 10 N 3.7
Oggi h: 06:20 nuvoloso Nuvoloso 12 6 66 1022 10 N 9.3
Oggi h: 05:50 sereno Sereno 13 6 62 1022 10 N 7.4
Oggi h: 05:20 poco_nuvoloso Poco Nuvoloso 13 6 62 1022 10 N 5.5
Oggi h: 04:50 nuvoloso Nuvoloso 13 6 62 1023 10 N 3.7
Oggi h: 04:20 molto_nuvoloso Molto Nuvoloso 13 7 66 1023 10 N 3.7
Oggi h: 03:50 molto_nuvoloso Molto Nuvoloso 13 7 66 1023 10 N 3.7
Oggi h: 03:20 molto_nuvoloso Molto Nuvoloso 13 6 62 1023 10 N 7.4
Oggi h: 02:50 molto_nuvoloso Molto Nuvoloso 14 6 58 1023 10 N 5.5
Oggi h: 02:20 nuvoloso Nuvoloso 14 5 54 1024 10 N 5.5
Oggi h: 01:50 molto_nuvoloso Molto Nuvoloso 16 5 47 1024 10 N 5.5
Oggi h: 01:20 nuvoloso Nuvoloso 16 5 47 1024 10 E/NE 9.3
Oggi h: 00:50 nuvoloso Nuvoloso 16 6 51 1024 10 NE 11.1
Oggi h: 00:20 molto_nuvoloso Molto Nuvoloso 16 6 51 1024 10 NE 9.3
Ieri h: 23:50 nuvoloso Nuvoloso 17 6 48 1024 10 NE 7.4
Ieri h: 23:20 nuvoloso Nuvoloso 16 7 55 1024 10 N 5.5
Ieri h: 22:50 sereno Sereno 17 7 51 1024 10 E 7.4
Ieri h: 22:20 sereno Sereno 17 8 55 1024 10 N 3.7
Ieri h: 21:50 sereno Sereno 17 8 55 1024 10 N 3.7
Ieri h: 21:20 sereno Sereno 17 8 55 1024 10 N 3.7
Ieri h: 20:50 nuvoloso Nuvoloso 20 6 39 1024 10 N 3.7
Ieri h: 20:20 nuvoloso Nuvoloso 20 6 39 1023 10 N 5.5
Ieri h: 19:50 nuvoloso Nuvoloso 20 6 39 1024 10 SE 7.4
Ieri h: 19:20 nuvoloso Nuvoloso 21 6 37 1024 10 E 9.3
Ieri h: 18:50 nuvoloso Nuvoloso 21 5 35 1024 10 E/SE 13
Ieri h: 18:20 sereno Sereno 22 6 35 1024 10 E 13
Ieri h: 17:50 sereno Sereno 22 5 32 1024 10 S/SE 14.8
Ieri h: 17:20 sereno Sereno 22 7 37 1024 10 S/SE 13
Ieri h: 16:50 sereno Sereno 22 6 35 1025 10 SE 14.8
Ieri h: 16:20 sereno Sereno 22 7 37 1025 10 S 9.3
Ieri h: 15:20 sereno Sereno 22 6 35 1026 10 S/SE 13
Ieri h: 14:50 sereno Sereno 22 7 37 1026 10 S/SE 14.8
Ieri h: 14:20 sereno Sereno 22 7 37 1026 10 E/SE 9.3
Ieri h: 13:50 sereno Sereno 22 8 40 1027 10 S/SE 7.4
Ieri h: 13:20 sereno Sereno 21 5 35 1027 10 N/NE 7.4
Ieri h: 12:50 sereno Sereno 21 6 37 1027 10 N 3.7
Ieri h: 12:20 sereno Sereno 20 7 42 1027 10 N 3.7
Ieri h: 11:50 sereno Sereno 20 8 45 1028 10 N 5.5
Ieri h: 11:20 sereno Sereno 19 8 48 1028 10 N 3.7
Ieri h: 10:50 sereno Sereno 19 8 48 1028 10 N 3.7
Ieri h: 10:20 sereno Sereno 18 8 51 1028 10 N 1.8
Ieri h: 09:50 sereno Sereno 17 8 55 1028 10 N 3.7